createdAt,value
2017-10-21T00:00:13.613Z,0
2017-10-21T00:01:13.962Z,0
2017-10-21T00:02:13.690Z,0
2017-10-21T00:03:13.763Z,0
2017-10-21T00:04:14.290Z,0
2017-10-21T00:05:13.998Z,0
2017-10-21T00:06:14.375Z,0
2017-10-21T00:07:13.935Z,0
2017-10-21T00:08:13.978Z,0
2017-10-21T00:09:14.417Z,0
2017-10-21T00:10:13.376Z,0
2017-10-21T00:11:13.511Z,0
2017-10-21T00:12:13.474Z,0
2017-10-21T00:13:13.854Z,0
2017-10-21T00:14:13.471Z,0
2017-10-21T00:15:13.464Z,0
2017-10-21T00:16:13.771Z,0
2017-10-21T00:17:13.420Z,0
2017-10-21T00:18:13.424Z,0
2017-10-21T00:19:13.238Z,0
2017-10-21T00:20:13.393Z,0
2017-10-21T00:21:13.713Z,0
2017-10-21T00:22:14.051Z,0
2017-10-21T00:23:13.348Z,0
2017-10-21T00:24:14.051Z,0
2017-10-21T00:25:13.788Z,0
2017-10-21T00:26:13.333Z,0
2017-10-21T00:27:13.329Z,0
2017-10-21T00:28:12.966Z,0
2017-10-21T00:29:13.278Z,0
2017-10-21T00:30:13.760Z,0
2017-10-21T00:31:13.600Z,0
2017-10-21T00:32:13.252Z,0
2017-10-21T00:33:13.255Z,0
2017-10-21T00:34:13.245Z,0
2017-10-21T00:35:13.217Z,0
2017-10-21T00:36:13.228Z,0
2017-10-21T00:37:12.854Z,0
2017-10-21T00:38:13.519Z,0
2017-10-21T00:39:13.208Z,0
2017-10-21T00:40:13.850Z,0
2017-10-21T00:41:12.806Z,0
2017-10-21T00:42:12.800Z,0
2017-10-21T00:43:13.128Z,0
2017-10-21T00:44:12.775Z,0
2017-10-21T00:45:13.104Z,0
2017-10-21T00:46:13.480Z,0
2017-10-21T00:47:13.092Z,0
2017-10-21T00:48:13.424Z,0
2017-10-21T00:49:13.071Z,0
2017-10-21T00:50:13.757Z,0
2017-10-21T00:51:13.057Z,0
2017-10-21T00:52:13.713Z,0
2017-10-21T00:53:12.676Z,0
2017-10-21T00:54:13.013Z,0
2017-10-21T00:55:12.991Z,0
2017-10-21T00:56:12.983Z,0
2017-10-21T00:57:13.333Z,0
2017-10-21T00:58:13.644Z,0
2017-10-21T00:59:12.950Z,0
2017-10-21T01:00:13.633Z,0
2017-10-21T01:01:12.924Z,0
2017-10-21T01:02:13.275Z,0
2017-10-21T01:03:13.583Z,0
2017-10-21T01:04:12.912Z,0
2017-10-21T01:05:12.888Z,0
2017-10-21T01:06:13.220Z,0
2017-10-21T01:07:12.886Z,0
2017-10-21T01:08:13.557Z,0
2017-10-21T01:09:12.913Z,0
2017-10-21T01:10:13.206Z,0
2017-10-21T01:11:12.492Z,0
2017-10-21T01:12:12.816Z,0
2017-10-21T01:13:13.153Z,0
2017-10-21T01:14:13.128Z,0
2017-10-21T01:15:12.456Z,0
2017-10-21T01:16:12.810Z,0
2017-10-21T01:17:12.419Z,0
2017-10-21T01:18:12.752Z,0
2017-10-21T01:19:12.734Z,0
2017-10-21T01:20:12.751Z,0
2017-10-21T01:21:12.728Z,0
2017-10-21T01:22:13.380Z,0
2017-10-21T01:23:12.723Z,0
2017-10-21T01:24:13.054Z,0
2017-10-21T01:25:12.680Z,0
2017-10-21T01:26:12.661Z,0
2017-10-21T01:27:12.304Z,0
2017-10-21T01:28:12.651Z,0
2017-10-21T01:29:13.011Z,0
2017-10-21T01:30:13.017Z,0
2017-10-21T01:31:12.628Z,0
2017-10-21T01:32:13.289Z,0
2017-10-21T01:33:13.604Z,0
2017-10-21T01:34:13.252Z,0
2017-10-21T01:35:12.559Z,0
2017-10-21T01:36:12.227Z,0
2017-10-21T01:37:12.561Z,0
2017-10-21T01:38:12.535Z,0
2017-10-21T01:39:12.530Z,0
2017-10-21T01:40:12.571Z,0
2017-10-21T01:41:12.849Z,0
2017-10-21T01:42:12.885Z,0
2017-10-21T01:43:12.482Z,0
2017-10-21T01:44:12.124Z,0
2017-10-21T01:45:12.801Z,0
2017-10-21T01:46:12.821Z,0
2017-10-21T01:47:12.769Z,0
2017-10-21T01:48:12.431Z,0
2017-10-21T01:49:12.756Z,0
2017-10-21T01:50:12.756Z,0
2017-10-21T01:51:12.047Z,0
2017-10-21T01:52:12.378Z,0
2017-10-21T01:53:12.729Z,0
2017-10-21T01:54:13.044Z,0
2017-10-21T01:55:13.080Z,0
2017-10-21T01:56:12.678Z,0
2017-10-21T01:57:12.678Z,0
2017-10-21T01:58:13.029Z,0
2017-10-21T01:59:12.675Z,0
2017-10-21T02:00:12.290Z,0
2017-10-21T02:01:12.298Z,0
2017-10-21T02:02:12.267Z,0
2017-10-21T02:03:12.276Z,0
2017-10-21T02:04:12.247Z,0
2017-10-21T02:05:12.235Z,0
2017-10-21T02:06:12.583Z,0
2017-10-21T02:07:12.558Z,0
2017-10-21T02:08:11.861Z,0
2017-10-21T02:09:12.536Z,0
2017-10-21T02:10:12.520Z,0
2017-10-21T02:11:12.190Z,0
2017-10-21T02:12:12.498Z,0
2017-10-21T02:13:12.150Z,0
2017-10-21T02:14:12.151Z,0
2017-10-21T02:15:12.815Z,0
2017-10-21T02:16:12.112Z,0
2017-10-21T02:17:11.780Z,0
2017-10-21T02:18:12.094Z,0
2017-10-21T02:19:12.431Z,0
2017-10-21T02:20:12.421Z,0
2017-10-21T02:21:12.401Z,0
2017-10-21T02:22:12.051Z,0
2017-10-21T02:23:11.701Z,0
2017-10-21T02:24:12.371Z,0
2017-10-21T02:25:11.730Z,0
2017-10-21T02:26:12.381Z,0
2017-10-21T02:27:12.403Z,0
2017-10-21T02:28:12.340Z,0
2017-10-21T02:29:12.728Z,0
2017-10-21T02:30:12.703Z,0
2017-10-21T02:31:11.959Z,0
2017-10-21T02:32:12.683Z,0
2017-10-21T02:33:12.272Z,0
2017-10-21T02:34:11.922Z,0
2017-10-21T02:35:12.307Z,0
2017-10-21T02:36:11.916Z,0
2017-10-21T02:37:11.897Z,0
2017-10-21T02:38:12.224Z,0
2017-10-21T02:39:12.234Z,0
2017-10-21T02:40:12.217Z,0
2017-10-21T02:41:12.207Z,0
2017-10-21T02:42:11.840Z,0
2017-10-21T02:43:12.196Z,0
2017-10-21T02:44:12.190Z,0
2017-10-21T02:45:12.488Z,0
2017-10-21T02:46:12.158Z,0
2017-10-21T02:47:11.457Z,0
2017-10-21T02:48:11.773Z,0
2017-10-21T02:49:11.445Z,0
2017-10-21T02:50:11.767Z,0
2017-10-21T02:51:11.404Z,0
2017-10-21T02:52:11.443Z,0
2017-10-21T02:53:11.378Z,0
2017-10-21T02:54:12.408Z,0
2017-10-21T02:55:11.372Z,0
2017-10-21T02:56:11.703Z,0
2017-10-21T02:57:12.381Z,0
2017-10-21T02:58:11.341Z,0
2017-10-21T02:59:11.661Z,0
2017-10-21T03:00:11.722Z,0
2017-10-21T03:01:12.002Z,0
2017-10-21T03:02:11.646Z,0
2017-10-21T03:03:12.296Z,0
2017-10-21T03:04:11.965Z,0
2017-10-21T03:05:11.594Z,0
2017-10-21T03:06:11.941Z,0
2017-10-21T03:07:11.266Z,0
2017-10-21T03:08:11.566Z,0
2017-10-21T03:09:11.567Z,0
2017-10-21T03:10:12.222Z,0
2017-10-21T03:11:11.522Z,0
2017-10-21T03:12:11.193Z,0
2017-10-21T03:13:11.170Z,0
2017-10-21T03:14:11.856Z,0
2017-10-21T03:15:12.178Z,0
2017-10-21T03:16:11.818Z,0
2017-10-21T03:17:11.459Z,0
2017-10-21T03:18:11.446Z,0
2017-10-21T03:19:11.448Z,0
2017-10-21T03:20:11.429Z,0
2017-10-21T03:21:12.450Z,0
2017-10-21T03:22:11.752Z,0
2017-10-21T03:23:11.865Z,0
2017-10-21T03:24:11.381Z,0
2017-10-21T03:25:12.088Z,0
2017-10-21T03:26:11.707Z,0
2017-10-21T03:27:11.711Z,0
2017-10-21T03:28:12.023Z,0
2017-10-21T03:29:10.996Z,0
2017-10-21T03:30:12.043Z,0
2017-10-21T03:31:11.671Z,0
2017-10-21T03:32:11.657Z,0
2017-10-21T03:33:11.324Z,0
2017-10-21T03:34:11.290Z,0
2017-10-21T03:35:11.288Z,0
2017-10-21T03:36:11.609Z,0
2017-10-21T03:37:11.615Z,0
2017-10-21T03:38:11.584Z,0
2017-10-21T03:39:11.220Z,0
2017-10-21T03:40:11.219Z,0
2017-10-21T03:41:11.540Z,0
2017-10-21T03:42:11.193Z,0
2017-10-21T03:43:11.533Z,0
2017-10-21T03:44:11.525Z,0
2017-10-21T03:45:11.157Z,0
2017-10-21T03:46:11.498Z,0
2017-10-21T03:47:11.494Z,0
2017-10-21T03:48:11.814Z,0
2017-10-21T03:49:11.827Z,0
2017-10-21T03:50:11.447Z,0
2017-10-21T03:51:11.463Z,0
2017-10-21T03:52:11.445Z,0
2017-10-21T03:53:11.417Z,0
2017-10-21T03:54:11.416Z,0
2017-10-21T03:55:11.070Z,0
2017-10-21T03:56:11.384Z,0
2017-10-21T03:57:11.364Z,0
2017-10-21T03:58:11.024Z,0
2017-10-21T03:59:11.361Z,0
2017-10-21T04:00:11.340Z,0
2017-10-21T04:01:11.003Z,0
2017-10-21T04:02:10.984Z,0
2017-10-21T04:03:11.008Z,0
2017-10-21T04:04:11.294Z,0
2017-10-21T04:05:11.300Z,0
2017-10-21T04:06:10.948Z,0
2017-10-21T04:07:11.600Z,0
2017-10-21T04:08:11.251Z,0
2017-10-21T04:09:10.921Z,0
2017-10-21T04:10:10.894Z,0
2017-10-21T04:11:10.880Z,0
2017-10-21T04:12:11.207Z,0
2017-10-21T04:13:11.197Z,0
2017-10-21T04:14:11.555Z,0
2017-10-21T04:15:10.537Z,0
2017-10-21T04:16:10.831Z,0
2017-10-21T04:17:10.474Z,0
2017-10-21T04:18:10.809Z,0
2017-10-21T04:19:10.788Z,0
2017-10-21T04:20:10.447Z,0
2017-10-21T04:21:10.774Z,0
2017-10-21T04:22:10.772Z,0
2017-10-21T04:23:11.118Z,0
2017-10-21T04:24:11.108Z,0
2017-10-21T04:25:10.761Z,0
2017-10-21T04:26:10.377Z,0
2017-10-21T04:27:10.369Z,0
2017-10-21T04:28:10.718Z,0
2017-10-21T04:29:11.023Z,0
2017-10-21T04:30:11.013Z,0
2017-10-21T04:31:10.664Z,0
2017-10-21T04:32:10.671Z,0
2017-10-21T04:33:10.981Z,0
2017-10-21T04:34:10.288Z,0
2017-10-21T04:35:10.958Z,0
2017-10-21T04:36:10.974Z,0
2017-10-21T04:37:10.597Z,0
2017-10-21T04:38:10.592Z,0
2017-10-21T04:39:10.240Z,0
2017-10-21T04:40:10.226Z,0
2017-10-21T04:41:10.896Z,0
2017-10-21T04:42:10.546Z,0
2017-10-21T04:43:10.550Z,0
2017-10-21T04:44:10.182Z,0
2017-10-21T04:45:10.867Z,0
2017-10-21T04:46:10.503Z,0
2017-10-21T04:47:10.147Z,0
2017-10-21T04:48:11.043Z,0
2017-10-21T04:49:10.478Z,0
2017-10-21T04:50:10.798Z,0
2017-10-21T04:51:10.104Z,0
2017-10-21T04:52:10.094Z,0
2017-10-21T04:53:10.450Z,0
2017-10-21T04:54:10.418Z,0
2017-10-21T04:55:10.401Z,0
2017-10-21T04:56:10.391Z,0
2017-10-21T04:57:10.382Z,0
2017-10-21T04:58:10.371Z,0
2017-10-21T04:59:10.724Z,0
2017-10-21T05:00:10.709Z,0
2017-10-21T05:01:10.698Z,0
2017-10-21T05:02:09.992Z,0
2017-10-21T05:03:10.654Z,0
2017-10-21T05:04:10.648Z,0
2017-10-21T05:05:09.970Z,0
2017-10-21T05:06:10.284Z,0
2017-10-21T05:07:10.271Z,0
2017-10-21T05:08:10.268Z,0
2017-10-21T05:09:10.255Z,0
2017-10-21T05:10:09.896Z,0
2017-10-21T05:11:10.588Z,0
2017-10-21T05:12:10.378Z,0
2017-10-21T05:13:09.867Z,0
2017-10-21T05:14:10.215Z,0
2017-10-21T05:15:10.184Z,0
2017-10-21T05:16:10.522Z,0
2017-10-21T05:17:10.183Z,0
2017-10-21T05:18:10.176Z,0
2017-10-21T05:19:10.495Z,0
2017-10-21T05:20:10.815Z,0
2017-10-21T05:21:10.457Z,0
2017-10-21T05:22:09.768Z,0
2017-10-21T05:23:10.447Z,0
2017-10-21T05:24:10.444Z,0
2017-10-21T05:25:09.748Z,0
2017-10-21T05:26:10.411Z,0
2017-10-21T05:27:10.102Z,0
2017-10-21T05:28:10.047Z,0
2017-10-21T05:29:09.698Z,0
2017-10-21T05:30:10.713Z,0
2017-10-21T05:31:10.016Z,0
2017-10-21T05:32:10.006Z,0
2017-10-21T05:33:09.989Z,0
2017-10-21T05:34:09.692Z,0
2017-10-21T05:35:10.384Z,0
2017-10-21T05:36:11.541Z,0
2017-10-21T05:37:10.630Z,0
2017-10-21T05:38:10.640Z,0
2017-10-21T05:39:11.042Z,0
2017-10-21T05:40:09.793Z,0
2017-10-21T05:41:10.269Z,5
2017-10-21T05:42:09.825Z,5
2017-10-21T05:43:10.167Z,5
2017-10-21T05:44:10.183Z,5
2017-10-21T05:45:09.905Z,5
2017-10-21T05:46:09.793Z,5
2017-10-21T05:47:10.053Z,5
2017-10-21T05:48:10.223Z,5
2017-10-21T05:49:09.815Z,5
2017-10-21T05:50:10.582Z,10
2017-10-21T05:51:10.558Z,10
2017-10-21T05:52:10.837Z,10
2017-10-21T05:53:10.431Z,10
2017-10-21T05:54:10.145Z,10
2017-10-21T05:55:10.789Z,10
2017-10-21T05:56:09.783Z,10
2017-10-21T05:57:10.098Z,15
2017-10-21T05:58:09.685Z,15
2017-10-21T05:59:10.095Z,15
2017-10-21T06:00:10.484Z,15
2017-10-21T06:01:09.616Z,15
2017-10-21T06:02:09.699Z,20
2017-10-21T06:03:10.068Z,20
2017-10-21T06:04:09.585Z,25
2017-10-21T06:05:10.008Z,25
2017-10-21T06:06:09.964Z,25
2017-10-21T06:07:10.400Z,30
2017-10-21T06:08:09.909Z,30
2017-10-21T06:09:09.947Z,30
2017-10-21T06:10:10.320Z,35
2017-10-21T06:11:10.306Z,40
2017-10-21T06:12:10.280Z,40
2017-10-21T06:13:09.975Z,40
2017-10-21T06:14:10.290Z,40
2017-10-21T06:15:09.899Z,35
2017-10-21T06:16:09.432Z,35
2017-10-21T06:17:09.380Z,35
2017-10-21T06:18:09.895Z,35
2017-10-21T06:19:10.161Z,40
2017-10-21T06:20:10.060Z,40
2017-10-21T06:21:09.827Z,40
2017-10-21T06:22:10.071Z,45
2017-10-21T06:23:10.187Z,50
2017-10-21T06:24:09.482Z,60
2017-10-21T06:25:09.394Z,60
2017-10-21T06:26:09.777Z,60
2017-10-21T06:27:10.020Z,60
2017-10-21T06:28:09.401Z,60
2017-10-21T06:29:09.394Z,60
2017-10-21T06:30:09.034Z,55
2017-10-21T06:31:09.723Z,55
2017-10-21T06:32:09.710Z,55
2017-10-21T06:33:09.685Z,55
2017-10-21T06:34:09.355Z,55
2017-10-21T06:35:09.677Z,60
2017-10-21T06:36:09.323Z,65
2017-10-21T06:37:09.672Z,65
2017-10-21T06:38:09.298Z,65
2017-10-21T06:39:09.625Z,60
2017-10-21T06:40:09.291Z,55
2017-10-21T06:41:09.596Z,50
2017-10-21T06:42:09.612Z,55
2017-10-21T06:43:09.262Z,55
2017-10-21T06:44:08.905Z,60
2017-10-21T06:45:09.561Z,65
2017-10-21T06:46:09.206Z,70
2017-10-21T06:47:09.532Z,70
2017-10-21T06:48:08.842Z,70
2017-10-21T06:49:09.511Z,75
2017-10-21T06:50:09.162Z,80
2017-10-21T06:51:09.548Z,70
2017-10-21T06:52:09.146Z,65
2017-10-21T06:53:09.176Z,65
2017-10-21T06:54:09.144Z,65
2017-10-21T06:55:09.121Z,65
2017-10-21T06:56:09.101Z,70
2017-10-21T06:57:09.450Z,70
2017-10-21T06:58:09.424Z,70
2017-10-21T06:59:08.754Z,70
2017-10-21T07:00:09.747Z,75
2017-10-21T07:01:09.432Z,80
2017-10-21T07:02:08.724Z,85
2017-10-21T07:03:09.057Z,85
2017-10-21T07:04:09.700Z,85
2017-10-21T07:05:09.048Z,85
2017-10-21T07:06:09.002Z,90
2017-10-21T07:07:08.646Z,90
2017-10-21T07:08:09.680Z,95
2017-10-21T07:09:08.967Z,95
2017-10-21T07:10:08.645Z,100
2017-10-21T07:11:09.299Z,105
2017-10-21T07:12:08.937Z,105
2017-10-21T07:13:08.590Z,105
2017-10-21T07:14:09.318Z,105
2017-10-21T07:15:08.579Z,110
2017-10-21T07:16:08.902Z,105
2017-10-21T07:17:09.241Z,100
2017-10-21T07:18:08.879Z,100
2017-10-21T07:19:08.558Z,100
2017-10-21T07:20:08.868Z,105
2017-10-21T07:21:08.880Z,115
2017-10-21T07:22:09.347Z,115
2017-10-21T07:23:08.913Z,115
2017-10-21T07:24:08.479Z,115
2017-10-21T07:25:09.152Z,115
2017-10-21T07:26:08.827Z,125
2017-10-21T07:27:08.804Z,135
2017-10-21T07:28:08.785Z,150
2017-10-21T07:29:08.937Z,155
2017-10-21T07:30:08.766Z,160
2017-10-21T07:31:08.805Z,155
2017-10-21T07:32:08.850Z,135
2017-10-21T07:33:08.745Z,125
2017-10-21T07:34:08.763Z,125
2017-10-21T07:35:08.736Z,130
2017-10-21T07:36:08.712Z,140
2017-10-21T07:37:08.702Z,135
2017-10-21T07:38:08.372Z,130
2017-10-21T07:39:09.014Z,130
2017-10-21T07:40:09.014Z,130
2017-10-21T07:41:08.678Z,130
2017-10-21T07:42:09.029Z,130
2017-10-21T07:43:09.696Z,135
2017-10-21T07:44:08.292Z,140
2017-10-21T07:45:08.981Z,140
2017-10-21T07:46:08.631Z,140
2017-10-21T07:47:08.962Z,130
2017-10-21T07:48:08.604Z,125
2017-10-21T07:49:08.612Z,120
2017-10-21T07:50:08.916Z,115
2017-10-21T07:51:09.256Z,115
2017-10-21T07:52:08.899Z,120
2017-10-21T07:53:08.550Z,130
2017-10-21T07:54:08.886Z,140
2017-10-21T07:55:08.882Z,165
2017-10-21T07:56:08.863Z,180
2017-10-21T07:57:08.858Z,190
2017-10-21T07:58:08.520Z,185
2017-10-21T07:59:08.365Z,185
2017-10-21T08:00:08.884Z,185
2017-10-21T08:01:08.828Z,190
2017-10-21T08:02:08.813Z,195
2017-10-21T08:03:08.476Z,200
2017-10-21T08:04:08.115Z,200
2017-10-21T08:05:08.120Z,195
2017-10-21T08:06:08.465Z,185
2017-10-21T08:07:08.797Z,180
2017-10-21T08:08:08.769Z,175
2017-10-21T08:09:08.085Z,165
2017-10-21T08:10:08.400Z,155
2017-10-21T08:11:08.049Z,145
2017-10-21T08:12:08.066Z,145
2017-10-21T08:13:08.372Z,140
2017-10-21T08:14:08.386Z,135
2017-10-21T08:15:08.703Z,130
2017-10-21T08:16:08.353Z,125
2017-10-21T08:17:08.339Z,120
2017-10-21T08:18:08.680Z,115
2017-10-21T08:19:08.700Z,115
2017-10-21T08:20:07.972Z,115
2017-10-21T08:21:08.330Z,115
2017-10-21T08:22:09.335Z,115
2017-10-21T08:23:08.288Z,120
2017-10-21T08:24:08.282Z,120
2017-10-21T08:25:08.949Z,120
2017-10-21T08:26:07.950Z,120
2017-10-21T08:27:07.910Z,110
2017-10-21T08:28:08.621Z,105
2017-10-21T08:29:08.235Z,95
2017-10-21T08:30:08.573Z,90
2017-10-21T08:31:08.910Z,90
2017-10-21T08:32:08.564Z,95
2017-10-21T08:33:08.292Z,105
2017-10-21T08:34:08.885Z,115
2017-10-21T08:35:08.528Z,115
2017-10-21T08:36:08.517Z,115
2017-10-21T08:37:08.510Z,110
2017-10-21T08:38:07.814Z,115
2017-10-21T08:39:08.166Z,115
2017-10-21T08:40:07.804Z,120
2017-10-21T08:41:07.793Z,130
2017-10-21T08:42:08.827Z,135
2017-10-21T08:43:08.476Z,135
2017-10-21T08:44:08.167Z,140
2017-10-21T08:45:08.110Z,145
2017-10-21T08:46:08.091Z,160
2017-10-21T08:47:07.739Z,155
2017-10-21T08:48:08.085Z,160
2017-10-21T08:49:07.737Z,175
2017-10-21T08:50:08.740Z,185
2017-10-21T08:51:07.701Z,195
2017-10-21T08:52:08.380Z,215
2017-10-21T08:53:07.687Z,230
2017-10-21T08:54:08.028Z,245
2017-10-21T08:55:07.679Z,250
2017-10-21T08:56:08.366Z,250
2017-10-21T08:57:07.994Z,240
2017-10-21T08:58:07.987Z,225
2017-10-21T08:59:07.649Z,210
2017-10-21T09:00:07.631Z,195
2017-10-21T09:01:07.975Z,200
2017-10-21T09:02:07.964Z,205
2017-10-21T09:03:07.623Z,210
2017-10-21T09:04:07.623Z,215
2017-10-21T09:05:07.927Z,215
2017-10-21T09:06:08.607Z,215
2017-10-21T09:07:08.255Z,220
2017-10-21T09:08:07.910Z,210
2017-10-21T09:09:08.279Z,210
2017-10-21T09:10:07.550Z,195
2017-10-21T09:11:08.224Z,175
2017-10-21T09:12:08.567Z,170
2017-10-21T09:13:08.235Z,165
2017-10-21T09:14:07.860Z,165
2017-10-21T09:15:08.566Z,170
2017-10-21T09:16:08.201Z,170
2017-10-21T09:17:08.175Z,175
2017-10-21T09:18:08.539Z,170
2017-10-21T09:19:07.824Z,160
2017-10-21T09:20:08.158Z,145
2017-10-21T09:21:08.838Z,140
2017-10-21T09:22:07.797Z,155
2017-10-21T09:23:07.488Z,180
2017-10-21T09:24:07.805Z,205
2017-10-21T09:25:07.782Z,230
2017-10-21T09:26:08.124Z,235
2017-10-21T09:27:07.778Z,240
2017-10-21T09:28:08.098Z,240
2017-10-21T09:29:08.477Z,225
2017-10-21T09:30:08.085Z,210
2017-10-21T09:31:08.070Z,200
2017-10-21T09:32:08.065Z,200
2017-10-21T09:33:07.389Z,200
2017-10-21T09:34:07.705Z,210
2017-10-21T09:35:07.745Z,210
2017-10-21T09:36:07.350Z,205
2017-10-21T09:37:08.040Z,205
2017-10-21T09:38:07.681Z,225
2017-10-21T09:39:07.674Z,240
2017-10-21T09:40:08.343Z,245
2017-10-21T09:41:07.308Z,245
2017-10-21T09:42:08.375Z,235
2017-10-21T09:43:07.299Z,220
2017-10-21T09:44:07.972Z,195
2017-10-21T09:45:07.963Z,165
2017-10-21T09:46:07.619Z,155
2017-10-21T09:47:07.623Z,140
2017-10-21T09:48:07.619Z,135
2017-10-21T09:49:07.952Z,125
2017-10-21T09:50:07.255Z,115
2017-10-21T09:51:08.285Z,115
2017-10-21T09:52:07.582Z,105
2017-10-21T09:53:07.904Z,105
2017-10-21T09:54:07.215Z,105
2017-10-21T09:55:07.561Z,100
2017-10-21T09:56:07.563Z,105
2017-10-21T09:57:07.536Z,110
2017-10-21T09:58:07.904Z,105
2017-10-21T09:59:08.242Z,115
2017-10-21T10:00:07.858Z,115
2017-10-21T10:01:07.504Z,115
2017-10-21T10:02:07.494Z,120
2017-10-21T10:03:07.830Z,125
2017-10-21T10:04:07.160Z,125
2017-10-21T10:05:08.155Z,125
2017-10-21T10:06:07.129Z,120
2017-10-21T10:07:07.459Z,120
2017-10-21T10:08:07.448Z,120
2017-10-21T10:09:07.509Z,120
2017-10-21T10:10:07.455Z,120
2017-10-21T10:11:08.111Z,120
2017-10-21T10:12:07.423Z,120
2017-10-21T10:13:08.103Z,115
2017-10-21T10:14:07.067Z,120
2017-10-21T10:15:07.402Z,120
2017-10-21T10:16:07.402Z,120
2017-10-21T10:17:07.044Z,115
2017-10-21T10:18:07.037Z,115
2017-10-21T10:19:08.136Z,120
2017-10-21T10:20:07.369Z,125
2017-10-21T10:21:07.358Z,125
2017-10-21T10:22:07.702Z,120
2017-10-21T10:23:08.045Z,120
2017-10-21T10:24:07.698Z,120
2017-10-21T10:25:07.351Z,120
2017-10-21T10:26:07.727Z,120
2017-10-21T10:27:07.315Z,115
2017-10-21T10:28:08.118Z,115
2017-10-21T10:29:07.312Z,110
2017-10-21T10:30:06.961Z,115
2017-10-21T10:31:07.966Z,115
2017-10-21T10:32:07.277Z,115
2017-10-21T10:33:07.298Z,115
2017-10-21T10:34:06.924Z,105
2017-10-21T10:35:07.269Z,110
2017-10-21T10:36:07.595Z,110
2017-10-21T10:37:07.969Z,120
2017-10-21T10:38:06.899Z,110
2017-10-21T10:39:07.254Z,105
2017-10-21T10:40:06.886Z,115
2017-10-21T10:41:06.880Z,120
2017-10-21T10:42:07.559Z,120
2017-10-21T10:43:06.862Z,120
2017-10-21T10:44:07.548Z,120
2017-10-21T10:45:07.215Z,120
2017-10-21T10:46:07.533Z,110
2017-10-21T10:47:07.192Z,110
2017-10-21T10:48:07.514Z,105
2017-10-21T10:49:07.505Z,115
2017-10-21T10:50:07.185Z,110
2017-10-21T10:51:07.178Z,115
2017-10-21T10:52:07.830Z,115
2017-10-21T10:53:06.795Z,105
2017-10-21T10:54:07.128Z,105
2017-10-21T10:55:07.849Z,105
2017-10-21T10:56:07.795Z,105
2017-10-21T10:57:06.772Z,110
2017-10-21T10:58:07.144Z,110
2017-10-21T10:59:07.442Z,115
2017-10-21T11:00:08.125Z,125
2017-10-21T11:01:07.426Z,120
2017-10-21T11:02:06.737Z,125
2017-10-21T11:03:07.094Z,135
2017-10-21T11:04:07.437Z,150
2017-10-21T11:05:06.719Z,160
2017-10-21T11:06:07.053Z,195
2017-10-21T11:07:07.047Z,190
2017-10-21T11:08:06.699Z,185
2017-10-21T11:09:07.053Z,195
2017-10-21T11:10:06.692Z,180
2017-10-21T11:11:06.684Z,200
2017-10-21T11:12:06.697Z,215
2017-10-21T11:13:07.019Z,225
2017-10-21T11:14:07.003Z,215
2017-10-21T11:15:06.993Z,225
2017-10-21T11:16:06.999Z,255
2017-10-21T11:17:07.327Z,255
2017-10-21T11:18:06.987Z,240
2017-10-21T11:19:06.974Z,275
2017-10-21T11:20:07.335Z,260
2017-10-21T11:21:06.624Z,265
2017-10-21T11:22:06.614Z,250
2017-10-21T11:23:06.609Z,210
2017-10-21T11:24:06.623Z,225
2017-10-21T11:25:06.943Z,220
2017-10-21T11:26:06.608Z,250
2017-10-21T11:27:06.932Z,290
2017-10-21T11:28:06.581Z,270
2017-10-21T11:29:06.924Z,250
2017-10-21T11:30:06.925Z,245
2017-10-21T11:31:06.921Z,235
2017-10-21T11:32:06.941Z,260
2017-10-21T11:33:06.914Z,235
2017-10-21T11:34:06.883Z,230
2017-10-21T11:35:06.560Z,215
2017-10-21T11:36:07.212Z,230
2017-10-21T11:37:06.530Z,255
2017-10-21T11:38:07.207Z,290
2017-10-21T11:39:06.525Z,285
2017-10-21T11:40:06.519Z,260
2017-10-21T11:41:06.843Z,275
2017-10-21T11:42:07.178Z,250
2017-10-21T11:43:07.558Z,275
2017-10-21T11:44:07.166Z,280
2017-10-21T11:45:06.487Z,270
2017-10-21T11:46:06.869Z,275
2017-10-21T11:47:06.531Z,240
2017-10-21T11:48:07.516Z,250
2017-10-21T11:49:07.489Z,265
2017-10-21T11:50:07.521Z,245
2017-10-21T11:51:06.450Z,230
2017-10-21T11:52:07.841Z,235
2017-10-21T11:53:07.143Z,270
2017-10-21T11:54:07.121Z,270
2017-10-21T11:55:07.112Z,275
2017-10-21T11:56:07.112Z,265
2017-10-21T11:57:06.424Z,265
2017-10-21T11:58:07.460Z,270
2017-10-21T11:59:06.753Z,270
2017-10-21T12:00:06.750Z,260
2017-10-21T12:01:06.745Z,260
2017-10-21T12:02:06.774Z,240
2017-10-21T12:03:07.081Z,240
2017-10-21T12:04:06.408Z,240
2017-10-21T12:05:07.062Z,260
2017-10-21T12:06:07.065Z,270
2017-10-21T12:07:06.710Z,230
2017-10-21T12:08:07.054Z,220
2017-10-21T12:09:06.362Z,245
2017-10-21T12:10:06.699Z,245
2017-10-21T12:11:07.036Z,250
2017-10-21T12:12:06.355Z,245
2017-10-21T12:13:06.683Z,210
2017-10-21T12:14:06.697Z,215
2017-10-21T12:15:06.729Z,220
2017-10-21T12:16:07.707Z,200
2017-10-21T12:17:06.670Z,185
2017-10-21T12:18:06.663Z,210
2017-10-21T12:19:07.024Z,205
2017-10-21T12:20:06.681Z,190
2017-10-21T12:21:06.655Z,220
2017-10-21T12:22:06.645Z,240
2017-10-21T12:23:07.313Z,240
2017-10-21T12:24:07.309Z,255
2017-10-21T12:25:07.011Z,225
2017-10-21T12:26:06.971Z,195
2017-10-21T12:27:06.977Z,205
2017-10-21T12:28:06.612Z,240
2017-10-21T12:29:06.958Z,230
2017-10-21T12:30:06.613Z,225
2017-10-21T12:31:07.286Z,230
2017-10-21T12:32:06.598Z,205
2017-10-21T12:33:06.596Z,190
2017-10-21T12:34:06.595Z,185
2017-10-21T12:35:06.914Z,180
2017-10-21T12:36:06.573Z,170
2017-10-21T12:37:06.923Z,150
2017-10-21T12:38:06.922Z,135
2017-10-21T12:39:06.237Z,130
2017-10-21T12:40:06.560Z,120
2017-10-21T12:41:06.563Z,105
2017-10-21T12:42:06.903Z,90
2017-10-21T12:43:06.557Z,85
2017-10-21T12:44:06.191Z,90
2017-10-21T12:45:07.215Z,95
2017-10-21T12:46:06.518Z,100
2017-10-21T12:47:06.521Z,90
2017-10-21T12:48:06.186Z,90
2017-10-21T12:49:06.507Z,90
2017-10-21T12:50:06.501Z,90
2017-10-21T12:51:06.869Z,90
2017-10-21T12:52:06.494Z,85
2017-10-21T12:53:06.844Z,80
2017-10-21T12:54:07.539Z,90
2017-10-21T12:55:06.480Z,120
2017-10-21T12:56:06.834Z,135
2017-10-21T12:57:06.481Z,115
2017-10-21T12:58:06.121Z,95
2017-10-21T12:59:07.156Z,75
2017-10-21T13:00:06.450Z,75
2017-10-21T13:01:06.835Z,100
2017-10-21T13:02:06.804Z,110
2017-10-21T13:03:06.449Z,115
2017-10-21T13:04:07.113Z,115
2017-10-21T13:05:06.764Z,120
2017-10-21T13:06:06.415Z,120
2017-10-21T13:07:06.082Z,125
2017-10-21T13:08:06.406Z,120
2017-10-21T13:09:06.398Z,115
2017-10-21T13:10:06.761Z,105
2017-10-21T13:11:06.430Z,105
2017-10-21T13:12:06.768Z,110
2017-10-21T13:13:06.752Z,105
2017-10-21T13:14:06.371Z,105
2017-10-21T13:15:06.736Z,110
2017-10-21T13:16:06.015Z,125
2017-10-21T13:17:06.021Z,135
2017-10-21T13:18:07.033Z,160
2017-10-21T13:19:06.347Z,190
2017-10-21T13:20:07.017Z,205
2017-10-21T13:21:06.346Z,205
2017-10-21T13:22:05.997Z,205
2017-10-21T13:23:06.383Z,195
2017-10-21T13:24:06.316Z,190
2017-10-21T13:25:06.307Z,175
2017-10-21T13:26:06.308Z,160
2017-10-21T13:27:06.296Z,160
2017-10-21T13:28:06.995Z,200
2017-10-21T13:29:06.301Z,250
2017-10-21T13:30:05.939Z,250
2017-10-21T13:31:06.622Z,210
2017-10-21T13:32:06.266Z,170
2017-10-21T13:33:06.297Z,135
2017-10-21T13:34:06.278Z,135
2017-10-21T13:35:06.255Z,130
2017-10-21T13:36:05.920Z,145
2017-10-21T13:37:06.589Z,150
2017-10-21T13:38:05.907Z,135
2017-10-21T13:39:06.940Z,115
2017-10-21T13:40:06.230Z,120
2017-10-21T13:41:06.577Z,130
2017-10-21T13:42:06.248Z,145
2017-10-21T13:43:06.211Z,145
2017-10-21T13:44:06.554Z,125
2017-10-21T13:45:06.544Z,95
2017-10-21T13:46:06.194Z,75
2017-10-21T13:47:06.908Z,65
2017-10-21T13:48:06.205Z,75
2017-10-21T13:49:06.180Z,80
2017-10-21T13:50:05.849Z,100
2017-10-21T13:51:06.522Z,120
2017-10-21T13:52:05.820Z,115
2017-10-21T13:53:06.189Z,105
2017-10-21T13:54:06.174Z,85
2017-10-21T13:55:06.828Z,75
2017-10-21T13:56:06.150Z,70
2017-10-21T13:57:06.503Z,70
2017-10-21T13:58:06.155Z,75
2017-10-21T13:59:06.148Z,70
2017-10-21T14:00:06.169Z,70
2017-10-21T14:01:06.154Z,60
2017-10-21T14:02:06.505Z,70
2017-10-21T14:03:06.154Z,60
2017-10-21T14:04:06.476Z,50
2017-10-21T14:05:06.531Z,50
2017-10-21T14:06:06.434Z,55
2017-10-21T14:07:06.092Z,55
2017-10-21T14:08:05.751Z,55
2017-10-21T14:09:06.097Z,50
2017-10-21T14:10:06.065Z,50
2017-10-21T14:11:06.074Z,40
2017-10-21T14:12:06.389Z,40
2017-10-21T14:13:06.389Z,35
2017-10-21T14:14:06.436Z,35